sensor_id;sensor_type;location;lat;lon;timestamp;pressure;altitude;pressure_sealevel;temperature;humidity
7524;BME280;3803;51.666;7.630;2024-03-08T00:00:14;101324.94;;;5.05;47.83
7524;BME280;3803;51.666;7.630;2024-03-08T00:00:43;101339.16;;;5.12;47.83
7524;BME280;3803;51.666;7.630;2024-03-08T00:01:10;101334.59;;;5.08;48.05
7524;BME280;3803;51.666;7.630;2024-03-08T00:01:31;101332.28;;;5.13;47.98
7524;BME280;3803;51.666;7.630;2024-03-08T00:02:05;101342.88;;;5.17;48.06
7524;BME280;3803;51.666;7.630;2024-03-08T00:02:27;101337.28;;;5.25;47.36
7524;BME280;3803;51.666;7.630;2024-03-08T00:03:00;101323.09;;;5.18;47.53
7524;BME280;3803;51.666;7.630;2024-03-08T00:03:22;101347.03;;;5.29;47.51
7524;BME280;3803;51.666;7.630;2024-03-08T00:03:44;101330.16;;;5.20;47.69
7524;BME280;3803;51.666;7.630;2024-03-08T00:04:10;101328.16;;;5.16;47.38
7524;BME280;3803;51.666;7.630;2024-03-08T00:04:31;101329.19;;;5.18;47.74
7524;BME280;3803;51.666;7.630;2024-03-08T00:04:52;101332.53;;;5.17;47.43
7524;BME280;3803;51.666;7.630;2024-03-08T00:05:22;101336.13;;;5.19;47.27
7524;BME280;3803;51.666;7.630;2024-03-08T00:05:54;101344.34;;;5.12;47.73
7524;BME280;3803;51.666;7.630;2024-03-08T00:06:19;101320.56;;;5.04;47.50
7524;BME280;3803;51.666;7.630;2024-03-08T00:07:31;101342.00;;;5.17;47.37
7524;BME280;3803;51.666;7.630;2024-03-08T00:07:56;101336.84;;;5.17;47.46
7524;BME280;3803;51.666;7.630;2024-03-08T00:08:24;101333.19;;;5.13;47.60
7524;BME280;3803;51.666;7.630;2024-03-08T00:08:48;101340.41;;;5.19;47.44
7524;BME280;3803;51.666;7.630;2024-03-08T00:09:09;101324.44;;;5.11;47.64
7524;BME280;3803;51.666;7.630;2024-03-08T00:09:32;101325.16;;;5.09;47.53
7524;BME280;3803;51.666;7.630;2024-03-08T00:10:01;101324.16;;;5.06;47.42
7524;BME280;3803;51.666;7.630;2024-03-08T00:10:25;101330.84;;;5.03;47.64
7524;BME280;3803;51.666;7.630;2024-03-08T00:10:49;101324.03;;;4.90;47.98
7524;BME280;3803;51.666;7.630;2024-03-08T00:11:15;101345.41;;;5.16;47.88
7524;BME280;3803;51.666;7.630;2024-03-08T00:11:36;101330.59;;;5.13;47.49
7524;BME280;3803;51.666;7.630;2024-03-08T00:12:00;101335.22;;;5.19;47.58
7524;BME280;3803;51.666;7.630;2024-03-08T00:12:21;101325.41;;;5.13;47.41
7524;BME280;3803;51.666;7.630;2024-03-08T00:12:51;101328.81;;;5.12;47.45
7524;BME280;3803;51.666;7.630;2024-03-08T00:13:22;101336.13;;;5.19;47.23
7524;BME280;3803;51.666;7.630;2024-03-08T00:13:52;101327.72;;;5.09;47.50
7524;BME280;3803;51.666;7.630;2024-03-08T00:14:16;101321.66;;;5.08;47.46
7524;BME280;3803;51.666;7.630;2024-03-08T00:14:48;101333.28;;;5.15;47.72
7524;BME280;3803;51.666;7.630;2024-03-08T00:15:12;101318.69;;;5.02;47.50
7524;BME280;3803;51.666;7.630;2024-03-08T00:15:40;101335.75;;;5.13;47.49
7524;BME280;3803;51.666;7.630;2024-03-08T00:16:04;101341.09;;;5.16;47.18
7524;BME280;3803;51.666;7.630;2024-03-08T00:16:26;101326.81;;;5.08;47.36
7524;BME280;3803;51.666;7.630;2024-03-08T00:16:48;101324.34;;;5.10;47.41
7524;BME280;3803;51.666;7.630;2024-03-08T00:17:21;101333.00;;;5.10;47.54
7524;BME280;3803;51.666;7.630;2024-03-08T00:17:48;101339.31;;;5.15;47.25
7524;BME280;3803;51.666;7.630;2024-03-08T00:18:16;101330.31;;;5.09;47.19
7524;BME280;3803;51.666;7.630;2024-03-08T00:18:42;101319.69;;;5.04;47.10
7524;BME280;3803;51.666;7.630;2024-03-08T00:19:06;101335.59;;;5.10;47.53
7524;BME280;3803;51.666;7.630;2024-03-08T00:19:35;101337.88;;;5.05;47.21
7524;BME280;3803;51.666;7.630;2024-03-08T00:20:01;101318.41;;;4.97;47.21
7524;BME280;3803;51.666;7.630;2024-03-08T00:20:32;101312.00;;;4.90;47.37
7524;BME280;3803;51.666;7.630;2024-03-08T00:20:53;101323.53;;;4.96;47.08
7524;BME280;3803;51.666;7.630;2024-03-08T00:21:18;101336.63;;;4.99;47.98
7524;BME280;3803;51.666;7.630;2024-03-08T00:21:39;101318.41;;;4.82;47.76
7524;BME280;3803;51.666;7.630;2024-03-08T00:22:08;101333.06;;;4.97;47.66
7524;BME280;3803;51.666;7.630;2024-03-08T00:22:52;101338.41;;;5.00;47.71
7524;BME280;3803;51.666;7.630;2024-03-08T00:23:14;101338.78;;;5.06;47.29
7524;BME280;3803;51.666;7.630;2024-03-08T00:23:37;101332.63;;;5.04;47.30
7524;BME280;3803;51.666;7.630;2024-03-08T00:24:00;101330.66;;;5.00;47.32
7524;BME280;3803;51.666;7.630;2024-03-08T00:24:27;101327.69;;;4.93;47.47
7524;BME280;3803;51.666;7.630;2024-03-08T00:24:56;101334.94;;;4.99;47.32
7524;BME280;3803;51.666;7.630;2024-03-08T00:25:18;101320.38;;;4.86;47.32
7524;BME280;3803;51.666;7.630;2024-03-08T00:25:41;101313.22;;;4.82;47.44
7524;BME280;3803;51.666;7.630;2024-03-08T00:26:10;101331.59;;;4.87;47.41
7524;BME280;3803;51.666;7.630;2024-03-08T00:26:33;101314.47;;;4.74;47.49
7524;BME280;3803;51.666;7.630;2024-03-08T00:27:05;101317.84;;;4.73;47.40
7524;BME280;3803;51.666;7.630;2024-03-08T00:27:32;101329.72;;;4.84;47.55
7524;BME280;3803;51.666;7.630;2024-03-08T00:27:55;101333.31;;;4.86;47.75
7524;BME280;3803;51.666;7.630;2024-03-08T00:28:22;101321.41;;;4.75;47.76
7524;BME280;3803;51.666;7.630;2024-03-08T00:28:53;101330.63;;;4.85;48.08
7524;BME280;3803;51.666;7.630;2024-03-08T00:29:16;101336.88;;;4.88;47.73
7524;BME280;3803;51.666;7.630;2024-03-08T00:29:38;101315.53;;;4.77;47.74
7524;BME280;3803;51.666;7.630;2024-03-08T00:30:09;101333.91;;;4.82;47.88
7524;BME280;3803;51.666;7.630;2024-03-08T00:30:31;101319.91;;;4.78;47.87
7524;BME280;3803;51.666;7.630;2024-03-08T00:31:00;101312.06;;;4.77;48.10
7524;BME280;3803;51.666;7.630;2024-03-08T00:31:21;101333.50;;;4.89;47.51
7524;BME280;3803;51.666;7.630;2024-03-08T00:31:55;101320.00;;;4.80;47.64
7524;BME280;3803;51.666;7.630;2024-03-08T00:32:19;101324.97;;;4.77;47.88
7524;BME280;3803;51.666;7.630;2024-03-08T00:32:47;101320.81;;;4.79;47.53
7524;BME280;3803;51.666;7.630;2024-03-08T00:33:11;101334.09;;;4.85;48.02
7524;BME280;3803;51.666;7.630;2024-03-08T00:33:34;101318.66;;;4.72;48.33
7524;BME280;3803;51.666;7.630;2024-03-08T00:33:58;101318.03;;;4.76;48.11
7524;BME280;3803;51.666;7.630;2024-03-08T00:34:29;101313.75;;;4.76;47.92
7524;BME280;3803;51.666;7.630;2024-03-08T00:34:58;101316.94;;;4.72;48.25
7524;BME280;3803;51.666;7.630;2024-03-08T00:35:21;101338.66;;;4.89;48.10
7524;BME280;3803;51.666;7.630;2024-03-08T00:35:54;101312.84;;;4.76;48.13
7524;BME280;3803;51.666;7.630;2024-03-08T00:36:30;101321.78;;;4.81;48.04
7524;BME280;3803;51.666;7.630;2024-03-08T00:37:21;101335.56;;;4.95;48.09
7524;BME280;3803;51.666;7.630;2024-03-08T00:38:06;101331.72;;;4.88;48.50
7524;BME280;3803;51.666;7.630;2024-03-08T00:38:46;101329.69;;;4.98;47.99
7524;BME280;3803;51.666;7.630;2024-03-08T00:39:33;101319.16;;;4.95;47.70
7524;BME280;3803;51.666;7.630;2024-03-08T00:40:17;101313.59;;;4.88;47.63
7524;BME280;3803;51.666;7.630;2024-03-08T00:41:04;101312.81;;;4.89;47.89
7524;BME280;3803;51.666;7.630;2024-03-08T00:41:49;101307.47;;;4.86;47.82
7524;BME280;3803;51.666;7.630;2024-03-08T00:42:10;101308.16;;;4.84;47.67
7524;BME280;3803;51.666;7.630;2024-03-08T00:42:31;101315.22;;;4.86;47.42
7524;BME280;3803;51.666;7.630;2024-03-08T00:42:54;101313.84;;;4.78;47.47
7524;BME280;3803;51.666;7.630;2024-03-08T00:43:17;101321.25;;;4.87;47.55
7524;BME280;3803;51.666;7.630;2024-03-08T00:43:38;101309.41;;;4.75;47.42
7524;BME280;3803;51.666;7.630;2024-03-08T00:44:04;101320.72;;;4.77;47.45
7524;BME280;3803;51.666;7.630;2024-03-08T00:44:33;101304.72;;;4.70;47.33
7524;BME280;3803;51.666;7.630;2024-03-08T00:44:54;101308.91;;;4.68;47.61
7524;BME280;3803;51.666;7.630;2024-03-08T00:45:15;101325.88;;;4.77;47.42
7524;BME280;3803;51.666;7.630;2024-03-08T00:45:44;101303.09;;;4.57;47.33
7524;BME280;3803;51.666;7.630;2024-03-08T00:46:06;101323.56;;;4.67;47.87
7524;BME280;3803;51.666;7.630;2024-03-08T00:46:29;101308.25;;;4.57;47.45
7524;BME280;3803;51.666;7.630;2024-03-08T00:46:58;101307.28;;;4.55;47.47
7524;BME280;3803;51.666;7.630;2024-03-08T00:47:22;101314.94;;;4.53;47.68
7524;BME280;3803;51.666;7.630;2024-03-08T00:47:43;101315.28;;;4.44;47.94
7524;BME280;3803;51.666;7.630;2024-03-08T00:48:04;101325.25;;;4.53;48.20
7524;BME280;3803;51.666;7.630;2024-03-08T00:48:26;101303.22;;;4.45;48.21
7524;BME280;3803;51.666;7.630;2024-03-08T00:48:49;101314.44;;;4.59;47.91
7524;BME280;3803;51.666;7.630;2024-03-08T00:49:18;101303.50;;;4.49;48.22
7524;BME280;3803;51.666;7.630;2024-03-08T00:49:47;101293.69;;;4.44;48.08
7524;BME280;3803;51.666;7.630;2024-03-08T00:50:25;101302.63;;;4.49;48.42
7524;BME280;3803;51.666;7.630;2024-03-08T00:50:49;101314.44;;;4.59;48.21
7524;BME280;3803;51.666;7.630;2024-03-08T00:51:12;101321.03;;;4.69;47.86
7524;BME280;3803;51.666;7.630;2024-03-08T00:51:43;101294.25;;;4.53;48.08
7524;BME280;3803;51.666;7.630;2024-03-08T00:52:09;101302.81;;;4.52;48.06
7524;BME280;3803;51.666;7.630;2024-03-08T00:52:41;101305.13;;;4.47;48.40
7524;BME280;3803;51.666;7.630;2024-03-08T00:53:05;101294.78;;;4.47;48.30
7524;BME280;3803;51.666;7.630;2024-03-08T00:53:36;101288.53;;;4.44;48.42
7524;BME280;3803;51.666;7.630;2024-03-08T00:54:03;101291.38;;;4.48;48.63
7524;BME280;3803;51.666;7.630;2024-03-08T00:54:24;101309.63;;;4.65;48.11
7524;BME280;3803;51.666;7.630;2024-03-08T00:54:54;101293.44;;;4.54;48.14
7524;BME280;3803;51.666;7.630;2024-03-08T00:55:27;101304.16;;;4.60;48.44
7524;BME280;3803;51.666;7.630;2024-03-08T00:55:55;101309.88;;;4.70;47.99
7524;BME280;3803;51.666;7.630;2024-03-08T00:56:16;101298.19;;;4.61;48.13
7524;BME280;3803;51.666;7.630;2024-03-08T00:56:57;101299.63;;;4.56;48.16
7524;BME280;3803;51.666;7.630;2024-03-08T00:57:23;101291.44;;;4.63;47.85
7524;BME280;3803;51.666;7.630;2024-03-08T00:57:55;101293.66;;;4.57;48.27
7524;BME280;3803;51.666;7.630;2024-03-08T00:58:22;101304.28;;;4.62;48.27
7524;BME280;3803;51.666;7.630;2024-03-08T00:58:48;101288.66;;;4.60;47.80
7524;BME280;3803;51.666;7.630;2024-03-08T00:59:37;101289.78;;;4.50;48.56
7524;BME280;3803;51.666;7.630;2024-03-08T00:59:59;101299.63;;;4.56;48.54
7524;BME280;3803;51.666;7.630;2024-03-08T01:00:23;101308.75;;;4.64;48.41
7524;BME280;3803;51.666;7.630;2024-03-08T01:00:44;101284.91;;;4.55;48.16
7524;BME280;3803;51.666;7.630;2024-03-08T01:01:14;101293.81;;;4.60;48.21
7524;BME280;3803;51.666;7.630;2024-03-08T01:01:39;101312.31;;;4.67;48.29
7524;BME280;3803;51.666;7.630;2024-03-08T01:02:36;101310.69;;;4.69;48.10
7524;BME280;3803;51.666;7.630;2024-03-08T01:03:06;101305.66;;;4.57;48.36
7524;BME280;3803;51.666;7.630;2024-03-08T01:03:56;101301.50;;;4.59;48.25
7524;BME280;3803;51.666;7.630;2024-03-08T01:04:20;101295.84;;;4.51;48.55
7524;BME280;3803;51.666;7.630;2024-03-08T01:04:42;101293.97;;;4.48;47.98
7524;BME280;3803;51.666;7.630;2024-03-08T01:08:48;101307.56;;;4.59;48.28
7524;BME280;3803;51.666;7.630;2024-03-08T01:12:49;101299.25;;;4.50;48.23
7524;BME280;3803;51.666;7.630;2024-03-08T01:13:16;101286.84;;;4.44;48.36
7524;BME280;3803;51.666;7.630;2024-03-08T01:13:43;101273.44;;;4.36;47.96
7524;BME280;3803;51.666;7.630;2024-03-08T01:14:10;101284.97;;;4.42;48.43
7524;BME280;3803;51.666;7.630;2024-03-08T01:14:31;101279.59;;;4.38;48.48
7524;BME280;3803;51.666;7.630;2024-03-08T01:14:58;101275.50;;;4.42;48.13
7524;BME280;3803;51.666;7.630;2024-03-08T01:15:25;101283.34;;;4.44;48.05
7524;BME280;3803;51.666;7.630;2024-03-08T01:15:55;101277.31;;;4.43;48.24
7524;BME280;3803;51.666;7.630;2024-03-08T01:16:19;101276.94;;;4.37;48.71
7524;BME280;3803;51.666;7.630;2024-03-08T01:16:48;101273.66;;;4.40;48.48
7524;BME280;3803;51.666;7.630;2024-03-08T01:17:09;101271.22;;;4.43;48.40
7524;BME280;3803;51.666;7.630;2024-03-08T01:17:30;101271.22;;;4.43;48.26
7524;BME280;3803;51.666;7.630;2024-03-08T01:17:51;101279.78;;;4.42;48.58
7524;BME280;3803;51.666;7.630;2024-03-08T01:18:29;101275.94;;;4.35;48.67
7524;BME280;3803;51.666;7.630;2024-03-08T01:18:51;101278.00;;;4.41;48.44
7524;BME280;3803;51.666;7.630;2024-03-08T01:19:15;101266.06;;;4.43;48.38
7524;BME280;3803;51.666;7.630;2024-03-08T01:21:35;101271.41;;;4.46;48.51
7524;BME280;3803;51.666;7.630;2024-03-08T01:22:17;101268.47;;;4.40;48.03
7524;BME280;3803;51.666;7.630;2024-03-08T01:23:02;101263.19;;;4.38;48.22
7524;BME280;3803;51.666;7.630;2024-03-08T01:23:42;101283.72;;;4.50;48.45
7524;BME280;3803;51.666;7.630;2024-03-08T01:24:30;101281.19;;;4.36;48.85
7524;BME280;3803;51.666;7.630;2024-03-08T01:25:02;101292.09;;;4.46;48.81
7524;BME280;3803;51.666;7.630;2024-03-08T01:25:36;101262.50;;;4.41;49.01
7524;BME280;3803;51.666;7.630;2024-03-08T01:26:12;101262.09;;;4.48;48.93
7524;BME280;3803;51.666;7.630;2024-03-08T01:26:40;101258.13;;;4.40;48.80
7524;BME280;3803;51.666;7.630;2024-03-08T01:27:07;101280.16;;;4.48;48.37
7524;BME280;3803;51.666;7.630;2024-03-08T01:27:38;101272.59;;;4.51;48.54
7524;BME280;3803;51.666;7.630;2024-03-08T01:28:01;101260.91;;;4.43;48.59
7524;BME280;3803;51.666;7.630;2024-03-08T01:28:34;101268.94;;;4.47;48.39
7524;BME280;3803;51.666;7.630;2024-03-08T01:28:55;101260.91;;;4.43;48.07
7524;BME280;3803;51.666;7.630;2024-03-08T01:29:19;101254.03;;;4.43;48.22
7524;BME280;3803;51.666;7.630;2024-03-08T01:29:48;101252.88;;;4.38;47.95
7524;BME280;3803;51.666;7.630;2024-03-08T01:30:15;101262.50;;;4.41;47.94
7524;BME280;3803;51.666;7.630;2024-03-08T01:30:37;101262.28;;;4.37;48.00
7524;BME280;3803;51.666;7.630;2024-03-08T01:31:06;101255.56;;;4.40;48.04
7524;BME280;3803;51.666;7.630;2024-03-08T01:31:27;101265.88;;;4.40;48.01
7524;BME280;3803;51.666;7.630;2024-03-08T01:31:57;101254.78;;;4.27;48.21
7524;BME280;3803;51.666;7.630;2024-03-08T01:32:23;101257.66;;;4.32;48.54
7524;BME280;3803;51.666;7.630;2024-03-08T01:32:46;101263.72;;;4.32;48.05
7524;BME280;3803;51.666;7.630;2024-03-08T01:33:13;101271.13;;;4.41;48.13
7524;BME280;3803;51.666;7.630;2024-03-08T01:33:37;101250.00;;;4.33;47.87
7524;BME280;3803;51.666;7.630;2024-03-08T01:34:07;101257.47;;;4.29;48.23
7524;BME280;3803;51.666;7.630;2024-03-08T01:34:33;101265.59;;;4.35;48.08
7524;BME280;3803;51.666;7.630;2024-03-08T01:35:00;101253.88;;;4.27;48.01
7524;BME280;3803;51.666;7.630;2024-03-08T01:35:29;101245.53;;;4.17;48.47
7524;BME280;3803;51.666;7.630;2024-03-08T01:36:00;101250.31;;;4.24;48.11
7524;BME280;3803;51.666;7.630;2024-03-08T01:36:36;101246.63;;;4.21;48.45
7524;BME280;3803;51.666;7.630;2024-03-08T01:37:25;101243.97;;;4.19;48.51
7524;BME280;3803;51.666;7.630;2024-03-08T01:37:50;101244.66;;;4.17;48.77
7524;BME280;3803;51.666;7.630;2024-03-08T01:38:20;101242.94;;;4.17;48.41
7524;BME280;3803;51.666;7.630;2024-03-08T01:38:44;101240.38;;;4.17;48.49
7524;BME280;3803;51.666;7.630;2024-03-08T01:39:05;101246.44;;;4.18;48.61
7524;BME280;3803;51.666;7.630;2024-03-08T01:39:31;101239.28;;;4.14;48.92
7524;BME280;3803;51.666;7.630;2024-03-08T01:39:58;101244.16;;;4.22;48.75
7524;BME280;3803;51.666;7.630;2024-03-08T01:40:26;101255.75;;;4.29;48.74
7524;BME280;3803;51.666;7.630;2024-03-08T01:40:58;101237.09;;;4.20;48.66
7524;BME280;3803;51.666;7.630;2024-03-08T01:41:32;101238.69;;;4.18;48.73
7524;BME280;3803;51.666;7.630;2024-03-08T01:41:58;101247.25;;;4.17;49.01
7524;BME280;3803;51.666;7.630;2024-03-08T01:42:29;101264.22;;;4.27;49.40
7524;BME280;3803;51.666;7.630;2024-03-08T01:42:56;101252.69;;;4.35;49.15
7524;BME280;3803;51.666;7.630;2024-03-08T01:43:31;101241.28;;;4.18;48.94
7524;BME280;3803;51.666;7.630;2024-03-08T01:43:56;101235.50;;;4.22;49.29
7524;BME280;3803;51.666;7.630;2024-03-08T01:44:26;101250.97;;;4.35;49.13
7524;BME280;3803;51.666;7.630;2024-03-08T01:45:09;101237.78;;;4.31;48.92
7524;BME280;3803;51.666;7.630;2024-03-08T01:45:30;101236.19;;;4.33;48.69
7524;BME280;3803;51.666;7.630;2024-03-08T01:45:51;101241.63;;;4.37;48.75
7524;BME280;3803;51.666;7.630;2024-03-08T01:46:26;101237.88;;;4.32;48.27
7524;BME280;3803;51.666;7.630;2024-03-08T01:46:52;101221.91;;;4.24;48.69
7524;BME280;3803;51.666;7.630;2024-03-08T01:47:30;101243.13;;;4.34;49.13
7524;BME280;3803;51.666;7.630;2024-03-08T01:47:58;101228.16;;;4.28;48.38
7524;BME280;3803;51.666;7.630;2024-03-08T01:48:20;101225.19;;;4.22;48.68
7524;BME280;3803;51.666;7.630;2024-03-08T01:48:49;101233.22;;;4.27;48.31
7524;BME280;3803;51.666;7.630;2024-03-08T01:49:17;101218.03;;;4.18;48.16
7524;BME280;3803;51.666;7.630;2024-03-08T01:49:41;101239.19;;;4.26;48.40
7524;BME280;3803;51.666;7.630;2024-03-08T01:50:02;101225.66;;;4.16;48.60
7524;BME280;3803;51.666;7.630;2024-03-08T01:50:34;101235.03;;;4.14;48.86
7524;BME280;3803;51.666;7.630;2024-03-08T01:50:59;101224.41;;;4.09;48.60
7524;BME280;3803;51.666;7.630;2024-03-08T01:51:30;101229.56;;;4.09;48.64
7524;BME280;3803;51.666;7.630;2024-03-08T01:51:56;101240.78;;;4.10;48.80
7524;BME280;3803;51.666;7.630;2024-03-08T01:52:23;101222.63;;;4.08;48.72
7524;BME280;3803;51.666;7.630;2024-03-08T01:52:52;101245.75;;;4.20;48.71
7524;BME280;3803;51.666;7.630;2024-03-08T01:53:20;101229.56;;;4.09;48.54
7524;BME280;3803;51.666;7.630;2024-03-08T01:53:48;101231.34;;;4.10;48.55
7524;BME280;3803;51.666;7.630;2024-03-08T01:54:10;101218.25;;;4.07;48.47
7524;BME280;3803;51.666;7.630;2024-03-08T01:54:44;101226.00;;;4.07;48.41
7524;BME280;3803;51.666;7.630;2024-03-08T01:55:08;101240.09;;;4.13;48.60
7524;BME280;3803;51.666;7.630;2024-03-08T01:55:36;101214.38;;;4.01;49.07
7524;BME280;3803;51.666;7.630;2024-03-08T01:56:09;101221.72;;;4.08;49.05
7524;BME280;3803;51.666;7.630;2024-03-08T01:56:33;101226.28;;;4.12;48.65
7524;BME280;3803;51.666;7.630;2024-03-08T01:56:57;101230.66;;;4.13;48.87
7524;BME280;3803;51.666;7.630;2024-03-08T01:57:31;101224.41;;;4.23;48.58
7524;BME280;3803;51.666;7.630;2024-03-08T01:57:54;101225.94;;;4.21;48.60
7524;BME280;3803;51.666;7.630;2024-03-08T01:58:20;101215.16;;;4.13;48.75
7524;BME280;3803;51.666;7.630;2024-03-08T01:58:42;101222.09;;;4.14;48.86
7524;BME280;3803;51.666;7.630;2024-03-08T01:59:10;101218.44;;;4.10;48.85
7524;BME280;3803;51.666;7.630;2024-03-08T01:59:36;101226.56;;;4.17;48.86
7524;BME280;3803;51.666;7.630;2024-03-08T02:00:04;101219.63;;;4.16;48.83
7524;BME280;3803;51.666;7.630;2024-03-08T02:00:26;101234.75;;;4.23;48.67
7524;BME280;3803;51.666;7.630;2024-03-08T02:00:52;101218.81;;;4.17;48.53
7524;BME280;3803;51.666;7.630;2024-03-08T02:01:24;101214.19;;;4.11;48.71
7524;BME280;3803;51.666;7.630;2024-03-08T02:02:00;101236.41;;;4.22;49.07
7524;BME280;3803;51.666;7.630;2024-03-08T02:02:33;101212.66;;;4.15;49.03
7524;BME280;3803;51.666;7.630;2024-03-08T02:03:00;101232.16;;;4.23;49.00
7524;BME280;3803;51.666;7.630;2024-03-08T02:03:21;101221.59;;;4.20;48.94
7524;BME280;3803;51.666;7.630;2024-03-08T02:03:52;101206.72;;;4.16;48.68
7524;BME280;3803;51.666;7.630;2024-03-08T02:04:21;101208.81;;;4.08;49.13
7524;BME280;3803;51.666;7.630;2024-03-08T02:04:42;101217.13;;;4.17;49.17
7524;BME280;3803;51.666;7.630;2024-03-08T02:05:11;101239.66;;;4.33;49.06
7524;BME280;3803;51.666;7.630;2024-03-08T02:05:35;101218.81;;;4.17;49.34
7524;BME280;3803;51.666;7.630;2024-03-08T02:06:04;101212.84;;;4.18;49.59
7524;BME280;3803;51.666;7.630;2024-03-08T02:06:28;101219.59;;;4.29;49.46
7524;BME280;3803;51.666;7.630;2024-03-08T02:06:57;101205.97;;;4.32;48.69
7524;BME280;3803;51.666;7.630;2024-03-08T02:07:31;101207.47;;;4.28;49.13
7524;BME280;3803;51.666;7.630;2024-03-08T02:07:52;101210.06;;;4.28;49.00
7524;BME280;3803;51.666;7.630;2024-03-08T02:08:22;101226.13;;;4.37;48.98
7524;BME280;3803;51.666;7.630;2024-03-08T02:08:44;101219.88;;;4.34;49.13
7524;BME280;3803;51.666;7.630;2024-03-08T02:09:12;101220.78;;;4.34;49.06
7524;BME280;3803;51.666;7.630;2024-03-08T02:09:41;101211.56;;;4.24;49.10
7524;BME280;3803;51.666;7.630;2024-03-08T02:10:13;101218.78;;;4.30;49.15
7524;BME280;3803;51.666;7.630;2024-03-08T02:10:38;101213.28;;;4.24;49.18
7524;BME280;3803;51.666;7.630;2024-03-08T02:11:09;101220.59;;;4.31;49.65
7524;BME280;3803;51.666;7.630;2024-03-08T02:11:34;101204.28;;;4.32;49.49
7524;BME280;3803;51.666;7.630;2024-03-08T02:12:03;101207.03;;;4.35;49.53
7524;BME280;3803;51.666;7.630;2024-03-08T02:12:30;101200.47;;;4.41;49.07
7524;BME280;3803;51.666;7.630;2024-03-08T02:12:54;101203.88;;;4.40;49.04
7524;BME280;3803;51.666;7.630;2024-03-08T02:13:18;101221.88;;;4.53;48.97
7524;BME280;3803;51.666;7.630;2024-03-08T02:13:39;101215.63;;;4.49;48.89
7524;BME280;3803;51.666;7.630;2024-03-08T02:14:03;101219.00;;;4.48;49.09
7524;BME280;3803;51.666;7.630;2024-03-08T02:14:32;101200.47;;;4.41;48.94
7524;BME280;3803;51.666;7.630;2024-03-08T02:15:00;101206.63;;;4.43;48.74
7524;BME280;3803;51.666;7.630;2024-03-08T02:15:26;101204.63;;;4.38;48.58
7524;BME280;3803;51.666;7.630;2024-03-08T02:16:00;101209.91;;;4.40;48.79
7524;BME280;3803;51.666;7.630;2024-03-08T02:16:21;101202.84;;;4.37;48.72
7524;BME280;3803;51.666;7.630;2024-03-08T02:16:45;101220.63;;;4.46;48.80
7524;BME280;3803;51.666;7.630;2024-03-08T02:17:24;101203.88;;;4.40;49.09
7524;BME280;3803;51.666;7.630;2024-03-08T02:18:04;101201.28;;;4.40;48.47
7524;BME280;3803;51.666;7.630;2024-03-08T02:18:26;101208.13;;;4.39;49.03
7524;BME280;3803;51.666;7.630;2024-03-08T02:18:53;101222.56;;;4.50;48.74
7524;BME280;3803;51.666;7.630;2024-03-08T02:19:17;101210.44;;;4.49;48.81
7524;BME280;3803;51.666;7.630;2024-03-08T02:19:40;101208.28;;;4.42;48.70
7524;BME280;3803;51.666;7.630;2024-03-08T02:20:01;101216.34;;;4.47;48.48
7524;BME280;3803;51.666;7.630;2024-03-08T02:20:31;101201.06;;;4.36;48.51
7524;BME280;3803;51.666;7.630;2024-03-08T02:20:53;101211.91;;;4.44;48.34
7524;BME280;3803;51.666;7.630;2024-03-08T02:21:20;101205.44;;;4.37;48.30
7524;BME280;3803;51.666;7.630;2024-03-08T02:21:46;101204.72;;;4.25;48.17
7524;BME280;3803;51.666;7.630;2024-03-08T02:22:13;101218.78;;;4.30;48.79
7524;BME280;3803;51.666;7.630;2024-03-08T02:22:36;101209.78;;;4.23;48.75
7524;BME280;3803;51.666;7.630;2024-03-08T02:23:07;101199.56;;;4.25;49.07
7524;BME280;3803;51.666;7.630;2024-03-08T02:23:38;101218.34;;;4.37;48.84
7524;BME280;3803;51.666;7.630;2024-03-08T02:24:09;101200.34;;;4.24;48.61
7524;BME280;3803;51.666;7.630;2024-03-08T02:24:42;101204.81;;;4.13;48.68
7524;BME280;3803;51.666;7.630;2024-03-08T02:25:03;101204.13;;;4.16;48.91
7524;BME280;3803;51.666;7.630;2024-03-08T02:25:26;101199.13;;;4.19;49.15
7524;BME280;3803;51.666;7.630;2024-03-08T02:26:02;101215.44;;;4.31;49.08
7524;BME280;3803;51.666;7.630;2024-03-08T02:26:33;101219.97;;;4.35;48.97
7524;BME280;3803;51.666;7.630;2024-03-08T02:27:09;101212.91;;;4.33;48.86
7524;BME280;3803;51.666;7.630;2024-03-08T02:27:35;101194.19;;;4.22;49.23
7524;BME280;3803;51.666;7.630;2024-03-08T02:27:56;101186.91;;;4.30;49.24
7524;BME280;3803;51.666;7.630;2024-03-08T02:28:27;101208.22;;;4.41;48.95
7524;BME280;3803;51.666;7.630;2024-03-08T02:28:51;101192.44;;;4.36;49.17
7524;BME280;3803;51.666;7.630;2024-03-08T02:29:14;101208.50;;;4.45;48.56
7524;BME280;3803;51.666;7.630;2024-03-08T02:29:44;101210.19;;;4.45;48.46
7524;BME280;3803;51.666;7.630;2024-03-08T02:30:12;101192.34;;;4.34;48.46
7524;BME280;3803;51.666;7.630;2024-03-08T02:30:36;101193.84;;;4.31;48.65
7524;BME280;3803;51.666;7.630;2024-03-08T02:31:05;101205.28;;;4.34;48.83
7524;BME280;3803;51.666;7.630;2024-03-08T02:31:31;101202.78;;;4.36;48.48
7524;BME280;3803;51.666;7.630;2024-03-08T02:31:58;101189.38;;;4.28;48.98
7524;BME280;3803;51.666;7.630;2024-03-08T02:32:19;101191.16;;;4.29;48.85
7524;BME280;3803;51.666;7.630;2024-03-08T02:32:40;101208.13;;;4.39;48.38
7524;BME280;3803;51.666;7.630;2024-03-08T02:33:04;101194.44;;;4.27;48.53
7524;BME280;3803;51.666;7.630;2024-03-08T02:33:29;101189.72;;;4.19;48.68
7524;BME280;3803;51.666;7.630;2024-03-08T02:33:55;101189.50;;;4.16;48.84
7524;BME280;3803;51.666;7.630;2024-03-08T02:34:21;101188.91;;;4.20;49.19
7524;BME280;3803;51.666;7.630;2024-03-08T02:34:42;101184.53;;;4.19;49.19
7524;BME280;3803;51.666;7.630;2024-03-08T02:35:11;101202.50;;;4.31;48.80
7524;BME280;3803;51.666;7.630;2024-03-08T02:35:33;101188.50;;;4.28;48.78
7524;BME280;3803;51.666;7.630;2024-03-08T02:35:59;101182.34;;;4.26;49.18
7524;BME280;3803;51.666;7.630;2024-03-08T02:36:20;101179.69;;;4.24;48.87
7524;BME280;3803;51.666;7.630;2024-03-08T02:36:52;101186.00;;;4.29;48.71
7524;BME280;3803;51.666;7.630;2024-03-08T02:37:20;101187.78;;;4.30;48.75
7524;BME280;3803;51.666;7.630;2024-03-08T02:37:44;101183.13;;;4.24;48.74
7524;BME280;3803;51.666;7.630;2024-03-08T02:38:10;101177.28;;;4.27;49.06
7524;BME280;3803;51.666;7.630;2024-03-08T02:38:34;101177.28;;;4.27;48.89
7524;BME280;3803;51.666;7.630;2024-03-08T02:38:56;101194.13;;;4.35;48.92
7524;BME280;3803;51.666;7.630;2024-03-08T02:39:20;101194.75;;;4.31;48.99
7524;BME280;3803;51.666;7.630;2024-03-08T02:39:43;101201.72;;;4.32;48.92
7524;BME280;3803;51.666;7.630;2024-03-08T02:40:07;101190.38;;;4.30;49.10